createdAt,value
2023-01-11T00:02:23.968Z,99749.56
2023-01-11T00:04:52.022Z,99844.03
2023-01-11T00:07:20.211Z,99832.56
2023-01-11T00:09:48.195Z,99708.75
2023-01-11T00:12:16.508Z,99702.53
2023-01-11T00:14:44.409Z,99829.78
2023-01-11T00:17:13.620Z,99807.25
2023-01-11T00:19:41.412Z,99807.34
2023-01-11T00:22:09.299Z,99805.47
2023-01-11T00:24:37.189Z,99796.88
2023-01-11T00:27:05.223Z,99767.84
2023-01-11T00:29:33.049Z,99699.88
2023-01-11T00:32:00.879Z,99809.81
2023-01-11T00:34:30.136Z,99791.44
2023-01-11T00:36:58.072Z,99705.13
2023-01-11T00:39:26.045Z,99809.69
2023-01-11T00:42:11.136Z,99808.94
2023-01-11T00:44:56.516Z,99793.97
2023-01-11T00:47:41.951Z,99791.03
2023-01-11T00:50:12.615Z,99771.25
2023-01-11T00:52:40.853Z,99711.81
2023-01-11T00:55:09.856Z,99808.00
2023-01-11T00:57:37.677Z,99793.22
2023-01-11T01:00:07.352Z,99788.72
2023-01-11T01:02:35.423Z,99769.19
2023-01-11T01:05:03.614Z,99801.69
2023-01-11T01:07:33.136Z,99762.53
2023-01-11T01:10:01.148Z,99787.63
2023-01-11T01:12:46.546Z,99806.91
2023-01-11T01:15:14.537Z,99803.41
2023-01-11T01:17:42.572Z,99795.56
2023-01-11T01:20:11.552Z,99693.56
2023-01-11T01:22:40.899Z,99608.19
2023-01-11T01:25:09.635Z,99714.56
2023-01-11T01:27:37.946Z,99580.31
2023-01-11T01:30:07.606Z,99799.91
2023-01-11T01:32:35.675Z,99708.88
2023-01-11T01:35:03.932Z,99791.09
2023-01-11T01:37:31.756Z,99806.16
2023-01-11T01:40:00.986Z,99807.91
2023-01-11T01:42:28.901Z,99805.84
2023-01-11T01:45:00.485Z,99797.91
2023-01-11T01:47:39.412Z,99783.97
2023-01-11T01:50:13.254Z,99786.19
2023-01-11T01:52:42.328Z,99777.28
2023-01-11T01:55:17.442Z,99779.34
2023-01-11T01:57:46.052Z,99787.06
2023-01-11T02:00:15.264Z,99786.84
2023-01-11T02:02:45.356Z,99731.63
2023-01-11T02:05:15.491Z,99770.03
2023-01-11T02:07:44.528Z,99631.06
2023-01-11T02:10:16.408Z,99737.53
2023-01-11T02:12:49.031Z,99761.66
2023-01-11T02:15:18.281Z,99740.22
2023-01-11T02:17:46.157Z,99746.50
2023-01-11T02:20:27.554Z,99654.78
2023-01-11T02:23:31.021Z,99679.81
2023-01-11T02:26:53.064Z,99735.75
2023-01-11T02:29:34.506Z,99652.81
2023-01-11T02:32:10.990Z,99674.25
2023-01-11T02:34:46.331Z,99714.34
2023-01-11T02:37:26.461Z,99711.63
2023-01-11T02:40:03.856Z,99648.88
2023-01-11T02:42:56.760Z,99702.88
2023-01-11T02:45:40.187Z,99707.84
2023-01-11T02:48:17.603Z,99693.94
2023-01-11T02:50:52.008Z,99677.03
2023-01-11T02:53:24.867Z,99699.69
2023-01-11T02:55:58.386Z,99698.13
2023-01-11T02:58:29.914Z,99706.56
2023-01-11T03:01:00.684Z,99496.91
2023-01-11T03:03:29.648Z,99670.00
2023-01-11T03:06:03.165Z,99699.28
2023-01-11T03:08:52.891Z,99694.72
2023-01-11T03:11:42.192Z,99543.41
2023-01-11T03:14:21.139Z,99658.84
2023-01-11T03:16:56.017Z,99653.97
2023-01-11T03:19:33.898Z,99696.56
2023-01-11T03:22:08.380Z,99701.25
2023-01-11T03:24:45.127Z,99678.97
2023-01-11T03:27:22.200Z,99692.91
2023-01-11T03:29:55.326Z,99691.34
2023-01-11T03:32:37.759Z,99688.66
2023-01-11T03:35:14.574Z,99584.19
2023-01-11T03:37:48.955Z,99490.22
2023-01-11T03:40:23.330Z,99664.28
2023-01-11T03:43:14.675Z,99683.38
2023-01-11T03:45:53.385Z,99672.75
2023-01-11T03:48:28.257Z,99563.03
2023-01-11T03:50:58.376Z,99583.56
2023-01-11T03:53:31.225Z,99660.38
2023-01-11T03:56:01.680Z,99639.78
2023-01-11T03:58:30.501Z,99647.50
2023-01-11T04:00:59.613Z,99651.94
2023-01-11T04:03:29.360Z,99643.34
2023-01-11T04:06:00.663Z,99490.16
2023-01-11T04:08:28.857Z,99646.06
2023-01-11T04:10:56.764Z,99653.03
2023-01-11T04:13:24.615Z,99651.13
2023-01-11T04:15:54.006Z,99655.59
2023-01-11T04:18:22.000Z,99663.47
2023-01-11T04:20:51.385Z,99656.31
2023-01-11T04:23:19.309Z,99634.44
2023-01-11T04:25:48.102Z,99653.66
2023-01-11T04:28:16.340Z,99648.41
2023-01-11T04:30:44.132Z,99646.53
2023-01-11T04:33:13.278Z,99573.53
2023-01-11T04:35:41.355Z,99646.59
2023-01-11T04:38:10.915Z,99624.50
2023-01-11T04:40:38.729Z,99588.13
2023-01-11T04:43:05.576Z,99577.81
2023-01-11T04:45:33.719Z,99543.03
2023-01-11T04:48:01.681Z,99622.78
2023-01-11T04:50:29.780Z,99645.88
2023-01-11T04:52:59.635Z,99532.41
2023-01-11T04:55:28.867Z,99617.47
2023-01-11T04:57:56.800Z,99598.38
2023-01-11T05:00:24.844Z,99589.69
2023-01-11T05:02:52.702Z,99633.97
2023-01-11T05:05:20.689Z,99618.41
2023-01-11T05:07:49.980Z,99513.75
2023-01-11T05:10:20.803Z,99610.66
2023-01-11T05:12:50.416Z,99628.72
2023-01-11T05:15:19.544Z,99628.47
2023-01-11T05:17:47.578Z,99612.00
2023-01-11T05:20:15.568Z,99508.53
2023-01-11T05:22:43.524Z,99621.25
2023-01-11T05:25:11.574Z,99522.91
2023-01-11T05:27:39.479Z,99600.78
2023-01-11T05:30:12.085Z,99610.06
2023-01-11T05:32:39.961Z,99619.78
2023-01-11T05:35:11.226Z,99486.19
2023-01-11T05:37:39.442Z,99612.06
2023-01-11T05:40:09.037Z,99513.78
2023-01-11T05:42:36.851Z,99455.81
2023-01-11T05:45:23.027Z,99586.13
2023-01-11T05:47:54.008Z,99601.44
2023-01-11T05:50:22.203Z,99424.03
2023-01-11T05:52:50.096Z,99598.69
2023-01-11T05:55:18.168Z,99562.16
2023-01-11T05:57:46.792Z,99603.09
2023-01-11T06:00:15.835Z,99529.72
2023-01-11T06:02:43.820Z,99591.91
2023-01-11T06:05:13.200Z,99608.28
2023-01-11T06:07:41.243Z,99429.94
2023-01-11T06:10:10.516Z,99599.47
2023-01-11T06:12:38.491Z,99415.75
2023-01-11T06:15:07.328Z,99576.75
2023-01-11T06:17:35.570Z,99571.81
2023-01-11T06:20:03.463Z,99560.56
2023-01-11T06:22:32.678Z,99599.38
2023-01-11T06:25:00.791Z,99588.81
2023-01-11T06:27:28.620Z,99575.78
2023-01-11T06:29:56.580Z,99525.84
2023-01-11T06:32:24.443Z,99505.59
2023-01-11T06:34:52.560Z,99603.97
2023-01-11T06:37:20.462Z,99591.44
2023-01-11T06:39:49.721Z,99421.84
2023-01-11T06:42:17.516Z,99600.41
2023-01-11T06:44:45.425Z,99563.81
2023-01-11T06:47:13.295Z,99590.06
2023-01-11T06:49:41.200Z,99511.00
2023-01-11T06:52:09.081Z,99592.25
2023-01-11T06:54:36.916Z,99597.19
2023-01-11T06:57:06.282Z,99592.63
2023-01-11T06:59:34.388Z,99598.31
2023-01-11T07:02:02.286Z,99597.41
2023-01-11T07:04:30.960Z,99595.53
2023-01-11T07:06:59.281Z,99500.13
2023-01-11T07:09:27.525Z,99594.59
2023-01-11T07:11:55.375Z,99598.28
2023-01-11T07:14:25.203Z,99568.22
2023-01-11T07:16:53.148Z,99593.94
2023-01-11T07:19:21.207Z,99526.00
2023-01-11T07:21:49.093Z,99585.81
2023-01-11T07:24:17.546Z,99494.53
2023-01-11T07:26:45.447Z,99425.34
2023-01-11T07:29:13.404Z,99573.19
2023-01-11T07:31:42.752Z,99582.59
2023-01-11T07:34:10.627Z,99498.72
2023-01-11T07:36:39.997Z,99507.94
2023-01-11T07:39:08.181Z,99582.19
2023-01-11T07:41:53.695Z,99509.91
2023-01-11T07:44:21.456Z,99590.00
2023-01-11T07:46:51.088Z,99604.75
2023-01-11T07:49:19.103Z,99597.50
2023-01-11T07:51:47.000Z,99592.00
2023-01-11T07:54:15.121Z,99580.00
2023-01-11T07:56:43.000Z,99610.66
2023-01-11T07:59:11.018Z,99561.16
2023-01-11T08:01:38.856Z,99593.22
2023-01-11T08:04:11.966Z,99606.38
2023-01-11T08:06:40.332Z,99621.09
2023-01-11T08:09:10.207Z,99619.13
2023-01-11T08:11:55.494Z,99612.81
2023-01-11T08:14:41.545Z,99605.00
2023-01-11T08:17:11.920Z,99611.38
2023-01-11T08:19:42.040Z,99614.38
2023-01-11T08:22:10.278Z,99626.25
2023-01-11T08:24:38.412Z,99620.97
2023-01-11T08:27:06.587Z,99621.47
2023-01-11T08:29:34.762Z,99588.00
2023-01-11T08:32:02.773Z,99617.72
2023-01-11T08:34:31.683Z,99613.59
2023-01-11T08:37:02.292Z,99621.13
2023-01-11T08:39:31.064Z,99613.34
2023-01-11T08:41:59.163Z,99480.41
2023-01-11T08:44:34.024Z,99625.53
2023-01-11T08:47:02.811Z,99482.31
2023-01-11T08:49:31.268Z,99636.88
2023-01-11T08:51:59.155Z,99573.47
2023-01-11T08:54:28.512Z,99621.00
2023-01-11T08:56:56.310Z,99588.13
2023-01-11T08:59:24.164Z,99555.75
2023-01-11T09:01:52.148Z,99599.06
2023-01-11T09:04:25.053Z,99636.25
2023-01-11T09:06:53.953Z,99633.75
2023-01-11T09:09:21.871Z,99546.41
2023-01-11T09:12:00.274Z,99631.66
2023-01-11T09:14:29.337Z,99536.94
2023-01-11T09:16:57.909Z,99538.47
2023-01-11T09:19:26.729Z,99643.00
2023-01-11T09:21:57.899Z,99653.34
2023-01-11T09:24:25.775Z,99649.41
2023-01-11T09:26:55.589Z,99633.78
2023-01-11T09:29:23.519Z,99532.75
2023-01-11T09:31:52.071Z,99650.69
2023-01-11T09:34:20.996Z,99641.00
2023-01-11T09:36:49.852Z,99621.69
2023-01-11T09:39:20.610Z,99648.53
2023-01-11T09:42:18.783Z,99664.59
2023-01-11T09:44:52.358Z,99559.41
2023-01-11T09:47:32.159Z,99488.53
2023-01-11T09:50:04.787Z,99640.41
2023-01-11T09:52:39.684Z,99655.19
2023-01-11T09:55:14.439Z,99605.44
2023-01-11T09:57:54.494Z,99652.53
2023-01-11T10:00:29.871Z,99467.06
2023-01-11T10:03:24.335Z,99633.84
2023-01-11T10:06:06.203Z,99632.53
2023-01-11T10:18:33.754Z,99636.03
2023-01-11T10:18:39.331Z,99642.31
2023-01-11T10:20:45.763Z,99636.72
2023-01-11T10:23:18.571Z,99640.16
2023-01-11T10:25:51.727Z,99641.50
2023-01-11T10:28:27.594Z,99626.84
2023-01-11T10:31:11.958Z,99637.78
2023-01-11T10:33:57.672Z,99633.44
2023-01-11T10:36:51.718Z,99643.44
2023-01-11T10:39:46.552Z,99630.81
2023-01-11T10:42:21.661Z,99640.06
2023-01-11T10:45:00.062Z,99570.59
2023-01-11T10:47:36.637Z,99642.88
2023-01-11T10:50:15.793Z,99646.41
2023-01-11T10:52:52.005Z,99634.72
2023-01-11T10:55:27.791Z,99646.13
2023-01-11T10:58:08.494Z,99642.63
2023-01-11T11:00:48.425Z,99581.91
2023-01-11T11:03:49.183Z,99650.19
2023-01-11T11:06:25.159Z,99626.13
2023-01-11T11:09:01.170Z,99641.38
2023-01-11T11:11:35.959Z,99640.78
2023-01-11T11:14:12.130Z,99649.47
2023-01-11T11:16:48.784Z,99626.72
2023-01-11T11:19:22.871Z,99660.25
2023-01-11T11:21:52.447Z,99662.22
2023-01-11T11:24:27.858Z,99623.41
2023-01-11T11:27:02.140Z,99638.16
2023-01-11T11:29:30.880Z,99484.22
2023-01-11T11:32:01.609Z,99579.94
2023-01-11T11:34:31.248Z,99642.31
2023-01-11T11:37:01.592Z,99634.28
2023-01-11T11:39:31.474Z,99479.69
2023-01-11T11:42:07.401Z,99554.59
2023-01-11T11:44:35.497Z,99608.75
2023-01-11T11:47:05.507Z,99649.38
2023-01-11T11:49:36.928Z,99658.31
2023-01-11T11:52:06.817Z,99572.16
2023-01-11T11:54:38.072Z,99559.72
2023-01-11T11:57:16.599Z,99439.53
2023-01-11T11:59:47.602Z,99663.69
2023-01-11T12:02:25.539Z,99540.47
2023-01-11T12:04:56.773Z,99658.94
2023-01-11T12:07:28.154Z,99661.25
2023-01-11T12:10:01.856Z,99521.63
2023-01-11T12:12:29.919Z,99652.13
2023-01-11T12:15:19.731Z,99656.41
2023-01-11T12:17:48.591Z,99653.56
2023-01-11T12:20:34.636Z,99578.84
2023-01-11T12:23:19.888Z,99643.38
2023-01-11T12:26:22.905Z,99649.66
2023-01-11T12:29:27.601Z,99650.91
2023-01-11T12:32:10.039Z,99496.53
2023-01-11T12:34:51.970Z,99494.75
2023-01-11T12:37:36.269Z,99691.41
2023-01-11T12:40:15.326Z,99693.94
2023-01-11T12:43:08.087Z,99705.06
2023-01-11T12:45:46.903Z,99697.84
2023-01-11T12:48:29.491Z,99704.63
2023-01-11T12:51:13.365Z,99704.63
2023-01-11T12:54:05.548Z,99619.97
2023-01-11T12:56:47.768Z,99701.31
2023-01-11T12:59:29.800Z,99689.72
2023-01-11T13:02:11.915Z,99658.88
2023-01-11T13:04:58.961Z,99726.16
2023-01-11T13:07:44.837Z,99736.66
2023-01-11T13:10:46.102Z,99739.34
2023-01-11T13:13:20.250Z,99743.22
2023-01-11T13:15:57.150Z,99730.34
2023-01-11T13:18:34.222Z,99706.31
2023-01-11T13:21:12.249Z,99730.03
2023-01-11T13:23:45.505Z,99745.75
2023-01-11T13:26:24.493Z,99642.34
2023-01-11T13:28:59.331Z,99744.94
2023-01-11T13:31:27.910Z,99644.16
2023-01-11T13:34:02.619Z,99747.09
2023-01-11T13:36:38.596Z,99755.13
2023-01-11T13:39:14.735Z,99744.38
2023-01-11T13:41:48.449Z,99571.47
2023-01-11T13:44:20.464Z,99652.56
2023-01-11T13:47:01.043Z,99697.00
2023-01-11T13:49:54.546Z,99765.66
2023-01-11T13:52:36.783Z,99761.22
2023-01-11T13:55:20.856Z,99772.28
2023-01-11T13:58:00.422Z,99760.59
2023-01-11T14:00:34.664Z,99749.34
2023-01-11T14:03:13.888Z,99797.25
2023-01-11T14:05:49.446Z,99799.97
2023-01-11T14:08:32.075Z,99807.06
2023-01-11T14:11:09.636Z,99804.41
2023-01-11T14:14:18.276Z,99806.97
2023-01-11T14:17:03.523Z,99809.66
2023-01-11T14:19:38.683Z,99811.69
2023-01-11T14:22:20.246Z,99811.25
2023-01-11T14:24:57.162Z,99734.69
2023-01-11T14:27:43.464Z,99735.34
2023-01-11T14:30:34.350Z,99812.63
2023-01-11T14:33:40.711Z,99823.19
2023-01-11T14:36:33.804Z,99836.88
2023-01-11T14:39:29.719Z,99840.47
2023-01-11T14:42:31.978Z,99836.69
2023-01-11T14:45:17.155Z,99750.34
2023-01-11T14:48:11.856Z,99847.88
2023-01-11T14:51:10.670Z,99855.50
2023-01-11T14:53:43.499Z,99829.03
2023-01-11T14:56:37.577Z,99866.16
2023-01-11T14:59:07.318Z,99871.16
2023-01-11T15:02:09.180Z,99875.69
2023-01-11T15:04:59.930Z,99868.84
2023-01-11T15:07:42.110Z,99878.75
2023-01-11T15:10:46.477Z,99872.28
2023-01-11T15:13:19.229Z,99778.47
2023-01-11T15:16:04.868Z,99875.47
2023-01-11T15:18:33.498Z,99877.22
2023-01-11T15:21:05.892Z,99854.19
2023-01-11T15:23:37.802Z,99862.66
2023-01-11T15:26:09.352Z,99876.34
2023-01-11T15:28:50.073Z,99872.13
2023-01-11T15:31:35.084Z,99853.53
2023-01-11T15:34:06.258Z,99889.28
2023-01-11T15:37:09.923Z,99887.63
2023-01-11T15:39:45.361Z,99861.63
2023-01-11T15:42:39.687Z,99794.72
2023-01-11T15:45:28.494Z,99898.75
2023-01-11T15:48:22.956Z,99902.41
2023-01-11T15:51:05.259Z,99898.72
2023-01-11T15:54:06.243Z,99878.63
2023-01-11T15:56:54.323Z,99892.75
2023-01-11T15:59:57.661Z,99911.28
2023-01-11T16:02:47.343Z,99766.34
2023-01-11T16:05:19.588Z,99865.06
2023-01-11T16:07:53.112Z,99821.41
2023-01-11T16:10:54.203Z,99922.28
2023-01-11T16:13:44.670Z,99845.47
2023-01-11T16:16:19.538Z,99871.63
2023-01-11T16:18:51.015Z,99929.78
2023-01-11T16:21:25.104Z,99914.09
2023-01-11T16:23:53.195Z,99927.59
2023-01-11T16:26:22.742Z,99830.31
2023-01-11T16:28:55.569Z,99935.41
2023-01-11T16:31:23.973Z,99940.72
2023-01-11T16:33:53.357Z,99937.69
2023-01-11T16:36:23.841Z,99848.91
2023-01-11T16:39:01.886Z,99942.41
2023-01-11T16:41:35.787Z,99923.88
2023-01-11T16:44:08.931Z,99939.72
2023-01-11T16:47:11.460Z,99946.00
2023-01-11T16:49:40.153Z,99887.88
2023-01-11T16:52:43.781Z,99949.75
2023-01-11T16:55:25.322Z,99938.94
2023-01-11T16:57:57.378Z,99932.16
2023-01-11T17:00:32.987Z,99943.50
2023-01-11T17:03:28.912Z,99959.25
2023-01-11T17:06:07.555Z,99967.56
2023-01-11T17:08:37.191Z,99968.25
2023-01-11T17:11:11.641Z,99967.25
2023-01-11T17:14:04.850Z,99978.03
2023-01-11T17:16:38.208Z,99964.69
2023-01-11T17:19:12.911Z,99958.47
2023-01-11T17:21:42.582Z,99967.75
2023-01-11T17:24:15.009Z,99937.66
2023-01-11T17:26:46.550Z,99974.19
2023-01-11T17:29:19.682Z,99878.91
2023-01-11T17:31:49.109Z,99978.47
2023-01-11T17:34:20.656Z,99974.09
2023-01-11T17:36:49.287Z,99984.75
2023-01-11T17:39:24.093Z,99983.56
2023-01-11T17:42:09.781Z,99783.28
2023-01-11T17:44:55.651Z,99990.81
2023-01-11T17:47:29.705Z,99867.03
2023-01-11T17:50:01.040Z,99999.69
2023-01-11T17:52:43.815Z,99883.59
2023-01-11T17:55:21.035Z,99989.72
2023-01-11T17:58:12.079Z,99991.75
2023-01-11T18:00:41.244Z,100005.81
2023-01-11T18:03:14.584Z,99998.38
2023-01-11T18:05:44.059Z,99998.47
2023-01-11T18:08:19.978Z,99888.41
2023-01-11T18:10:55.207Z,99901.94
2023-01-11T18:13:28.712Z,99976.47
2023-01-11T18:15:56.788Z,99979.44
2023-01-11T18:18:43.534Z,99983.56
2023-01-11T18:21:40.115Z,100002.16
2023-01-11T18:24:34.382Z,99970.72
2023-01-11T18:27:17.183Z,99990.09
2023-01-11T18:29:50.683Z,99932.50
2023-01-11T18:32:19.284Z,99996.59
2023-01-11T18:34:54.603Z,99811.56
2023-01-11T18:37:23.464Z,100007.69
2023-01-11T18:39:53.151Z,99919.75
2023-01-11T18:42:25.503Z,100011.78
2023-01-11T18:44:53.629Z,99973.38
2023-01-11T18:47:23.409Z,99997.69
2023-01-11T18:49:54.254Z,99998.31
2023-01-11T18:52:27.295Z,99867.38
2023-01-11T18:54:55.663Z,100011.72
2023-01-11T18:57:24.277Z,99972.53
2023-01-11T18:59:53.512Z,99967.22
2023-01-11T19:02:24.690Z,99981.09
2023-01-11T19:04:56.174Z,99903.38
2023-01-11T19:07:24.965Z,100005.50
2023-01-11T19:09:54.860Z,100008.88
2023-01-11T19:12:23.424Z,99942.50
2023-01-11T19:14:51.520Z,99846.69
2023-01-11T19:17:19.416Z,99989.25
2023-01-11T19:19:47.672Z,99989.22
2023-01-11T19:22:17.133Z,99944.81
2023-01-11T19:24:44.962Z,100011.66
2023-01-11T19:27:13.525Z,99995.22
2023-01-11T19:29:41.607Z,100024.13
2023-01-11T19:32:09.849Z,99946.50
2023-01-11T19:34:39.597Z,100015.03
2023-01-11T19:37:07.748Z,99960.28
2023-01-11T19:39:37.231Z,99821.78
2023-01-11T19:42:05.595Z,99974.28
2023-01-11T19:44:35.265Z,99996.00
2023-01-11T19:47:11.416Z,99993.13
2023-01-11T19:49:40.056Z,99995.34
2023-01-11T19:52:12.666Z,99993.47
2023-01-11T19:54:44.058Z,99738.47
2023-01-11T19:57:14.024Z,99952.88
2023-01-11T19:59:42.637Z,99984.00
2023-01-11T20:02:12.579Z,99973.59
2023-01-11T20:04:41.094Z,99971.31
2023-01-11T20:07:10.163Z,99977.97
2023-01-11T20:09:39.028Z,99960.13
2023-01-11T20:12:09.748Z,99944.22
2023-01-11T20:14:38.243Z,99971.91
2023-01-11T20:17:06.124Z,99972.06
2023-01-11T20:19:34.449Z,99971.47
2023-01-11T20:22:02.320Z,99984.81
2023-01-11T20:24:30.408Z,99985.13
2023-01-11T20:26:59.576Z,99798.28
2023-01-11T20:29:29.269Z,99960.53
2023-01-11T20:32:13.408Z,99942.41
2023-01-11T20:34:45.358Z,99968.69
2023-01-11T20:37:14.956Z,99899.94
2023-01-11T20:39:42.916Z,99971.31
2023-01-11T20:42:12.442Z,99948.38
2023-01-11T20:44:41.731Z,99951.44
2023-01-11T20:47:09.603Z,99965.31
2023-01-11T20:49:37.632Z,99947.75
2023-01-11T20:52:06.153Z,99893.81
2023-01-11T20:54:33.979Z,99851.25
2023-01-11T20:57:05.502Z,99931.34
2023-01-11T20:59:33.539Z,99926.84
2023-01-11T21:02:02.804Z,99915.16
2023-01-11T21:04:30.826Z,99931.50
2023-01-11T21:06:58.755Z,99890.44
2023-01-11T21:09:26.544Z,99920.06
2023-01-11T21:11:54.413Z,99920.84
2023-01-11T21:14:22.741Z,99917.22
2023-01-11T21:16:50.732Z,99915.19
2023-01-11T21:19:20.114Z,99914.19
2023-01-11T21:21:49.665Z,99836.56
2023-01-11T21:24:17.971Z,99907.81
2023-01-11T21:26:47.863Z,99864.97
2023-01-11T21:29:16.147Z,99898.63
2023-01-11T21:31:44.513Z,99887.41
2023-01-11T21:34:13.281Z,99840.38
2023-01-11T21:36:44.971Z,99904.00
2023-01-11T21:39:15.494Z,99873.88
2023-01-11T21:41:58.043Z,99897.88
2023-01-11T21:44:30.696Z,99887.47
2023-01-11T21:46:58.671Z,99883.72
2023-01-11T21:49:26.573Z,99757.44
2023-01-11T21:51:56.110Z,99804.19
2023-01-11T21:54:24.336Z,99870.00
2023-01-11T21:56:52.409Z,99874.63
2023-01-11T21:59:21.550Z,99873.91
2023-01-11T22:01:49.826Z,99763.88
2023-01-11T22:04:19.810Z,99765.00
2023-01-11T22:06:51.676Z,99859.78
2023-01-11T22:09:22.070Z,99873.94
2023-01-11T22:11:50.991Z,99883.53
2023-01-11T22:14:19.149Z,99841.38
2023-01-11T22:16:47.142Z,99874.38
2023-01-11T22:19:15.390Z,99825.53
2023-01-11T22:21:43.438Z,99870.31
2023-01-11T22:24:12.258Z,99774.16
2023-01-11T22:26:42.214Z,99861.97
2023-01-11T22:29:14.951Z,99870.75
2023-01-11T22:31:45.949Z,99880.13
2023-01-11T22:34:15.133Z,99883.50
2023-01-11T22:36:43.662Z,99767.25
2023-01-11T22:39:12.435Z,99873.88
2023-01-11T22:41:41.967Z,99858.34
2023-01-11T22:44:11.074Z,99884.03
2023-01-11T22:46:39.528Z,99880.28
2023-01-11T22:49:07.907Z,99781.41
2023-01-11T22:51:35.966Z,99850.19
2023-01-11T22:54:05.107Z,99874.63
2023-01-11T22:56:33.791Z,99871.13
2023-01-11T22:59:03.410Z,99770.03
2023-01-11T23:01:33.280Z,99841.47
2023-01-11T23:04:01.923Z,99872.00
2023-01-11T23:06:31.528Z,99865.06
2023-01-11T23:09:00.383Z,99681.09
2023-01-11T23:11:47.602Z,99868.72
2023-01-11T23:14:18.899Z,99861.53
2023-01-11T23:16:48.223Z,99842.72
2023-01-11T23:19:19.964Z,99840.50
2023-01-11T23:21:48.718Z,99836.34
2023-01-11T23:24:17.986Z,99822.69
2023-01-11T23:26:46.223Z,99816.59
2023-01-11T23:29:14.442Z,99810.59
2023-01-11T23:31:44.286Z,99815.13
2023-01-11T23:34:13.193Z,99814.22
2023-01-11T23:36:42.861Z,99815.06
2023-01-11T23:39:13.993Z,99679.16
2023-01-11T23:41:59.645Z,99710.16
2023-01-11T23:44:27.926Z,99734.84
2023-01-11T23:47:14.738Z,99631.22
2023-01-11T23:49:43.974Z,99822.22
2023-01-11T23:52:12.290Z,99797.81
2023-01-11T23:54:40.218Z,99794.34
2023-01-11T23:57:09.462Z,99792.53
2023-01-11T23:59:37.495Z,99739.31
